Time;durP1;ratioP1;P1;durP2;ratioP2;P2;SDS_P1;SDS_P2;PMS_P1;PMS_P2;Temp;Humidity;BMP_temperature;BMP_pressure;BME280_temperature;BME280_humidity;BME280_pressure;Samples;Min_cycle;Max_cycle;Signal;HPM_P1;HPM_P2
2022/05/03 05:00:09;;;;;;;17.67;15.87;;;11.00;97.20;;;;;;1713841;28;20861;-78
2022/05/03 05:01:01;;;;;;;16.85;15.55;;;11.00;97.20;;;;;;1713497;28;20233;-78
2022/05/03 05:01:53;;;;;;;18.00;16.38;;;11.10;97.20;;;;;;1713840;28;20198;-78
2022/05/03 05:02:44;;;;;;;18.40;16.70;;;11.10;97.20;;;;;;1716145;28;20216;-78
2022/05/03 05:03:35;;;;;;;18.13;16.67;;;11.10;97.20;;;;;;1717834;28;20220;-78
2022/05/03 05:04:28;;;;;;;17.77;16.27;;;11.20;97.20;;;;;;1718291;28;20201;-78
2022/05/03 05:05:19;;;;;;;20.38;18.63;;;11.20;97.20;;;;;;1720302;28;20216;-78
2022/05/03 05:06:11;;;;;;;17.90;16.30;;;11.30;97.20;;;;;;1720270;28;20288;-79
2022/05/03 05:07:03;;;;;;;19.48;17.88;;;11.30;97.20;;;;;;1713793;28;20206;-79
2022/05/03 05:07:55;;;;;;;19.73;18.02;;;11.30;97.20;;;;;;1713946;28;20700;-80
2022/05/03 05:08:46;;;;;;;18.98;17.30;;;11.40;97.20;;;;;;1714218;28;20589;-80
2022/05/03 05:10:22;;;;;;;19.40;17.70;;;11.40;97.20;;;;;;1716997;28;20205;-80
2022/05/03 05:10:48;;;;;;;18.65;17.10;;;11.40;97.20;;;;;;1713846;28;20305;-80
2022/05/03 05:11:40;;;;;;;19.00;17.40;;;11.50;97.20;;;;;;1713372;28;20209;-77
2022/05/03 05:12:30;;;;;;;19.00;17.50;;;11.50;97.20;;;;;;1712313;28;20205;-77
2022/05/03 05:13:22;;;;;;;18.37;16.70;;;11.60;97.20;;;;;;1713124;28;20309;-76
2022/05/03 05:14:13;;;;;;;18.75;17.15;;;11.60;97.20;;;;;;1718650;28;20665;-77
2022/05/03 05:15:06;;;;;;;18.80;17.30;;;11.60;97.20;;;;;;1716330;28;20631;-77
2022/05/03 05:15:58;;;;;;;18.77;17.10;;;11.70;97.20;;;;;;1713237;28;20202;-77
2022/05/03 05:16:50;;;;;;;19.58;17.77;;;11.70;97.20;;;;;;1713274;28;20194;-77
2022/05/03 05:17:41;;;;;;;18.45;16.95;;;11.80;97.20;;;;;;1713219;28;20340;-77
2022/05/03 05:18:33;;;;;;;18.90;17.33;;;11.80;97.20;;;;;;1712952;28;20206;-76
2022/05/03 05:19:24;;;;;;;18.02;16.42;;;11.80;97.20;;;;;;1713261;28;20234;-77
2022/05/03 05:20:15;;;;;;;18.27;16.67;;;11.90;97.20;;;;;;1713454;28;20202;-77
2022/05/03 05:21:06;;;;;;;18.85;17.23;;;11.90;97.20;;;;;;1713616;28;20210;-77
2022/05/03 05:21:58;;;;;;;17.17;15.60;;;12.00;97.20;;;;;;1714263;28;20198;-77
2022/05/03 05:22:49;;;;;;;18.38;16.83;;;12.00;97.20;;;;;;1717181;28;20299;-77
2022/05/03 05:23:41;;;;;;;19.40;17.65;;;12.10;97.20;;;;;;1717749;28;20229;-77
2022/05/03 05:24:32;;;;;;;18.40;16.90;;;12.10;97.20;;;;;;1720933;28;20205;-77
2022/05/03 05:25:24;;;;;;;17.10;15.70;;;12.20;97.20;;;;;;1721217;28;20205;-77
2022/05/03 05:26:16;;;;;;;16.70;15.18;;;12.20;97.20;;;;;;1721232;28;20209;-77
2022/05/03 05:27:07;;;;;;;17.60;16.20;;;12.30;97.20;;;;;;1721175;28;20232;-77
2022/05/03 05:27:59;;;;;;;18.77;17.17;;;12.30;97.20;;;;;;1721206;28;20205;-77
2022/05/03 05:28:50;;;;;;;17.83;16.33;;;12.40;97.20;;;;;;1720910;28;20810;-77
2022/05/03 05:29:42;;;;;;;18.20;16.67;;;12.50;97.20;;;;;;1720875;28;20220;-77
2022/05/03 05:30:33;;;;;;;17.30;15.90;;;12.50;97.20;;;;;;1716245;28;20253;-77
2022/05/03 05:31:26;;;;;;;17.73;16.23;;;12.50;97.20;;;;;;1714529;28;20204;-77
2022/05/03 05:32:16;;;;;;;17.10;15.60;;;12.60;97.20;;;;;;1714293;28;20264;-77
2022/05/03 05:33:08;;;;;;;17.67;16.20;;;12.60;97.20;;;;;;1720025;28;20197;-77
2022/05/03 05:33:59;;;;;;;17.48;16.00;;;12.70;97.20;;;;;;1717284;28;20951;-77
2022/05/03 05:34:51;;;;;;;16.60;15.00;;;12.70;97.20;;;;;;1721116;28;20570;-77
2022/05/03 05:35:43;;;;;;;16.60;15.25;;;12.80;97.20;;;;;;1717989;28;20212;-77
2022/05/03 05:36:35;;;;;;;15.75;14.55;;;12.80;97.20;;;;;;1713609;28;20198;-77
2022/05/03 05:37:26;;;;;;;16.55;14.95;;;12.90;97.20;;;;;;1715349;28;20205;-77
2022/05/03 05:38:18;;;;;;;17.67;16.17;;;12.90;97.20;;;;;;1719000;28;20204;-77
2022/05/03 05:39:08;;;;;;;16.75;15.43;;;13.00;97.20;;;;;;1713905;28;20210;-77
2022/05/03 05:40:00;;;;;;;16.57;15.17;;;13.00;97.20;;;;;;1713449;28;20206;-77
2022/05/03 05:40:52;;;;;;;16.52;15.05;;;13.10;97.20;;;;;;1714215;28;20225;-77
2022/05/03 05:41:44;;;;;;;17.25;15.75;;;13.10;97.20;;;;;;1714555;28;20868;-77
2022/05/03 05:42:34;;;;;;;17.30;15.90;;;13.20;97.20;;;;;;1717072;28;20208;-76
2022/05/03 05:43:27;;;;;;;17.70;16.10;;;13.30;97.20;;;;;;1719110;28;20229;-77
2022/05/03 05:44:18;;;;;;;17.77;16.27;;;13.30;97.20;;;;;;1717602;28;20211;-76
2022/05/03 05:45:10;;;;;;;19.70;18.00;;;13.40;97.20;;;;;;1710548;28;20201;-76
2022/05/03 05:46:01;;;;;;;17.73;16.23;;;13.40;97.20;;;;;;1707651;28;20846;-76
2022/05/03 05:46:54;;;;;;;19.90;18.10;;;13.50;97.20;;;;;;1714252;28;20760;-77
2022/05/03 05:47:45;;;;;;;18.08;16.40;;;13.60;97.20;;;;;;1714533;28;20681;-77
2022/05/03 05:48:39;;;;;;;17.23;15.80;;;13.60;97.20;;;;;;1714250;28;20555;-77
2022/05/03 05:49:29;;;;;;;19.23;17.70;;;13.70;97.20;;;;;;1714675;28;20460;-77
2022/05/03 05:50:21;;;;;;;18.37;16.80;;;13.80;97.20;;;;;;1715026;28;20297;-80
2022/05/03 05:51:14;;;;;;;19.83;18.05;;;13.90;97.20;;;;;;1714774;28;20236;-78
2022/05/03 05:53:33;;;;;;;18.45;16.70;;;14.00;97.20;;;;;;1720448;28;20596;-79
2022/05/03 05:54:24;;;;;;;19.33;17.42;;;14.10;97.20;;;;;;1715487;28;20198;-78
2022/05/03 05:55:15;;;;;;;18.10;16.50;;;14.20;97.20;;;;;;1714916;28;20440;-79
2022/05/03 05:56:07;;;;;;;20.10;18.50;;;14.30;97.20;;;;;;1714615;28;20213;-78
2022/05/03 05:56:58;;;;;;;18.98;17.05;;;14.40;97.20;;;;;;1714673;28;20212;-78
2022/05/03 05:57:49;;;;;;;19.15;17.55;;;14.40;97.20;;;;;;1714615;28;20720;-78
2022/05/03 05:58:42;;;;;;;17.75;16.25;;;14.50;97.20;;;;;;1714595;28;20204;-79
2022/05/03 05:59:33;;;;;;;17.63;16.13;;;14.50;97.20;;;;;;1714427;28;20581;-77
2022/05/03 06:00:25;;;;;;;18.47;16.90;;;14.60;97.20;;;;;;1714681;28;20277;-77
2022/05/03 06:01:16;;;;;;;19.15;17.27;;;14.60;97.20;;;;;;1714617;28;20217;-78
2022/05/03 06:02:09;;;;;;;18.02;16.40;;;14.70;97.20;;;;;;1714004;28;20240;-78
2022/05/03 06:03:00;;;;;;;18.00;16.48;;;14.80;97.20;;;;;;1718687;28;20232;-77
2022/05/03 06:03:51;;;;;;;18.15;16.55;;;14.80;97.20;;;;;;1717121;28;20202;-77
2022/05/03 06:04:43;;;;;;;17.63;16.23;;;14.90;97.20;;;;;;1721035;28;20201;-77
2022/05/03 06:05:34;;;;;;;18.65;16.95;;;14.90;97.20;;;;;;1721008;28;20444;-77
2022/05/03 06:06:25;;;;;;;17.40;15.90;;;15.00;97.20;;;;;;1721247;28;20209;-77
2022/05/03 06:07:16;;;;;;;17.83;16.33;;;15.10;97.20;;;;;;1719202;28;20715;-80
2022/05/03 06:08:09;;;;;;;19.10;17.40;;;15.10;97.20;;;;;;1714290;28;20482;-78
2022/05/03 06:09:00;;;;;;;19.45;17.65;;;15.20;97.20;;;;;;1713700;28;20243;-79
2022/05/03 06:09:52;;;;;;;24.93;22.27;;;15.20;97.20;;;;;;1710611;28;20194;-79
2022/05/03 06:10:45;;;;;;;23.38;20.98;;;15.30;97.20;;;;;;1710925;28;20230;-79
2022/05/03 06:11:36;;;;;;;23.08;20.95;;;15.40;97.20;;;;;;1709519;28;20615;-79
2022/05/03 06:12:27;;;;;;;21.67;19.77;;;15.40;97.20;;;;;;1709968;28;20701;-80
2022/05/03 06:13:19;;;;;;;21.77;19.77;;;15.50;97.20;;;;;;1710350;28;20194;-79
2022/05/03 06:14:10;;;;;;;19.55;17.65;;;15.60;97.20;;;;;;1710313;28;20198;-79
2022/05/03 06:15:02;;;;;;;20.57;18.67;;;15.60;97.20;;;;;;1711292;28;20218;-79
2022/05/03 06:15:54;;;;;;;18.40;16.80;;;15.70;97.20;;;;;;1710996;28;20210;-79
2022/05/03 06:16:49;;;;;;;19.55;17.88;;;15.70;97.20;;;;;;1709545;28;20277;-79
2022/05/03 06:17:41;;;;;;;18.00;16.45;;;15.80;97.20;;;;;;1710454;28;20673;-78
2022/05/03 06:18:33;;;;;;;18.35;16.85;;;15.90;97.20;;;;;;1710219;28;20198;-79
2022/05/03 06:19:24;;;;;;;17.58;16.08;;;15.90;97.20;;;;;;1709244;28;20205;-79
2022/05/03 06:20:16;;;;;;;17.88;16.20;;;15.90;97.20;;;;;;1710843;28;20198;-79
2022/05/03 06:21:08;;;;;;;16.90;15.38;;;16.00;97.20;;;;;;1710605;28;20201;-79
2022/05/03 06:21:59;;;;;;;17.90;16.30;;;16.00;97.20;;;;;;1710148;28;20206;-79
2022/05/03 06:22:51;;;;;;;18.83;16.53;;;16.10;97.20;;;;;;1709482;28;20202;-76
2022/05/03 06:23:42;;;;;;;16.75;15.18;;;16.10;97.20;;;;;;1708630;28;20602;-77
2022/05/03 06:24:33;;;;;;;16.10;14.80;;;16.20;97.20;;;;;;1709888;28;20200;-76
2022/05/03 06:25:25;;;;;;;16.27;14.70;;;16.30;97.20;;;;;;1710176;28;20209;-76
2022/05/03 06:26:16;;;;;;;15.23;13.98;;;16.30;97.20;;;;;;1709120;28;20202;-77
2022/05/03 06:27:07;;;;;;;15.47;14.27;;;16.40;97.20;;;;;;1711040;28;20285;-77
2022/05/03 06:27:58;;;;;;;15.80;14.43;;;16.50;97.20;;;;;;1709727;28;20681;-77
2022/05/03 06:28:50;;;;;;;15.47;14.10;;;16.50;97.20;;;;;;1709528;28;21376;-77
2022/05/03 06:29:42;;;;;;;14.60;13.40;;;16.50;97.20;;;;;;1709702;28;20217;-77
2022/05/03 06:30:35;;;;;;;15.73;14.35;;;16.60;97.20;;;;;;1710836;28;20241;-77
2022/05/03 06:31:26;;;;;;;15.13;13.60;;;16.60;97.20;;;;;;1709926;28;20279;-78
2022/05/03 06:32:17;;;;;;;13.73;12.63;;;16.70;97.20;;;;;;1709289;28;20199;-77
2022/05/03 06:33:11;;;;;;;15.32;14.02;;;16.70;97.20;;;;;;1708926;28;20457;-77
2022/05/03 06:34:02;;;;;;;15.60;14.30;;;16.80;97.20;;;;;;1708782;28;20668;-77
2022/05/03 06:34:53;;;;;;;15.45;14.15;;;16.80;97.20;;;;;;1708846;28;20282;-77
2022/05/03 06:35:45;;;;;;;14.55;13.35;;;16.90;97.20;;;;;;1708502;28;20680;-77
2022/05/03 06:36:36;;;;;;;15.02;13.82;;;16.90;97.20;;;;;;1707567;28;20241;-77
2022/05/03 06:37:28;;;;;;;14.98;13.77;;;17.00;97.20;;;;;;1708742;28;20649;-77
2022/05/03 06:38:19;;;;;;;14.63;13.43;;;17.00;97.20;;;;;;1708543;28;20327;-77
2022/05/03 06:39:10;;;;;;;14.23;13.13;;;17.10;97.20;;;;;;1708972;28;20204;-77
2022/05/03 06:40:01;;;;;;;14.15;12.88;;;17.10;97.20;;;;;;1709778;28;20700;-77
2022/05/03 06:40:53;;;;;;;15.30;14.07;;;17.20;97.20;;;;;;1708598;28;20880;-77
2022/05/03 06:41:43;;;;;;;14.35;13.15;;;17.20;97.20;;;;;;1709037;28;20206;-77
2022/05/03 06:42:37;;;;;;;16.20;14.70;;;17.30;97.20;;;;;;1709142;28;20198;-76
2022/05/03 06:43:27;;;;;;;15.02;13.75;;;17.40;97.20;;;;;;1707895;28;20230;-77
2022/05/03 06:44:19;;;;;;;14.10;12.90;;;17.40;97.20;;;;;;1708577;28;20203;-77
2022/05/03 06:45:11;;;;;;;15.25;13.75;;;17.50;97.20;;;;;;1707668;28;20461;-77
2022/05/03 06:46:03;;;;;;;14.55;13.25;;;17.60;97.20;;;;;;1708789;28;20560;-77
2022/05/03 06:46:53;;;;;;;13.80;12.70;;;17.70;97.20;;;;;;1708830;28;20574;-77
2022/05/03 06:47:47;;;;;;;13.60;12.40;;;17.80;97.20;;;;;;1709962;28;20281;-78
2022/05/03 06:48:40;;;;;;;12.43;11.23;;;17.80;97.20;;;;;;1708754;28;20650;-77
2022/05/03 06:49:31;;;;;;;12.88;11.68;;;17.90;97.20;;;;;;1709140;28;20210;-77
2022/05/03 06:50:23;;;;;;;13.07;11.95;;;18.00;97.20;;;;;;1708645;28;20308;-77
2022/05/03 06:51:14;;;;;;;13.27;12.07;;;18.00;97.20;;;;;;1708622;28;20265;-78
2022/05/03 06:52:06;;;;;;;13.00;12.00;;;18.00;97.20;;;;;;1709177;28;20245;-78
2022/05/03 06:52:58;;;;;;;12.60;11.50;;;18.10;97.20;;;;;;1710450;28;20212;-78
2022/05/03 06:53:49;;;;;;;13.80;12.40;;;18.10;97.20;;;;;;1708387;28;20289;-77
2022/05/03 06:54:40;;;;;;;17.17;12.10;;;18.20;97.20;;;;;;1708794;28;20531;-78
2022/05/03 06:55:32;;;;;;;12.03;11.13;;;18.30;97.20;;;;;;1709999;28;20202;-78
2022/05/03 06:56:23;;;;;;;13.73;12.38;;;18.40;97.20;;;;;;1710821;28;20485;-78
2022/05/03 06:57:14;;;;;;;13.87;12.70;;;18.40;97.20;;;;;;1709187;28;20202;-77
2022/05/03 06:58:05;;;;;;;14.90;13.70;;;18.50;97.20;;;;;;1708726;28;20826;-78
2022/05/03 06:58:57;;;;;;;14.97;13.63;;;18.50;97.20;;;;;;1708957;28;20198;-77
2022/05/03 06:59:48;;;;;;;14.88;13.52;;;18.50;97.20;;;;;;1709423;28;20576;-78
2022/05/03 07:00:40;;;;;;;15.43;13.45;;;18.60;97.20;;;;;;1710176;28;20601;-78
2022/05/03 07:01:31;;;;;;;14.90;13.55;;;18.60;97.20;;;;;;1709440;28;20194;-78
2022/05/03 07:02:23;;;;;;;16.30;14.90;;;18.70;97.20;;;;;;1710128;28;20201;-78
2022/05/03 07:03:14;;;;;;;16.63;15.38;;;18.70;97.20;;;;;;1710373;28;20198;-77
2022/05/03 07:04:07;;;;;;;16.00;14.60;;;18.80;97.20;;;;;;1709281;28;20406;-78
2022/05/03 07:04:59;;;;;;;17.27;15.68;;;18.80;97.20;;;;;;1709277;28;20215;-78
2022/05/03 07:05:51;;;;;;;17.90;16.27;;;18.90;97.20;;;;;;1710150;28;20238;-78
2022/05/03 07:06:41;;;;;;;45.65;16.73;;;18.90;97.20;;;;;;1711449;28;20221;-78
2022/05/03 07:07:34;;;;;;;19.87;17.87;;;19.00;97.20;;;;;;1709815;28;20191;-77
2022/05/03 07:08:24;;;;;;;18.10;16.50;;;19.00;97.20;;;;;;1712096;28;20680;-77
2022/05/03 07:09:16;;;;;;;19.33;17.60;;;19.00;97.20;;;;;;1711655;28;20723;-77
2022/05/03 07:10:08;;;;;;;19.02;17.25;;;19.00;97.20;;;;;;1710152;28;20685;-77
2022/05/03 07:11:00;;;;;;;18.63;16.63;;;19.10;97.20;;;;;;1709738;28;20737;-77
2022/05/03 07:11:51;;;;;;;18.48;16.88;;;19.10;97.20;;;;;;1710012;28;20629;-78
2022/05/03 07:12:42;;;;;;;17.70;16.00;;;19.20;97.20;;;;;;1710258;28;20654;-78
2022/05/03 07:13:33;;;;;;;18.45;16.85;;;19.20;97.20;;;;;;1708960;28;20234;-78
2022/05/03 07:14:25;;;;;;;19.90;18.10;;;19.30;97.20;;;;;;1709362;28;20209;-78
2022/05/03 07:15:18;;;;;;;18.90;17.20;;;19.30;97.20;;;;;;1711379;28;20198;-79
2022/05/03 07:16:10;;;;;;;18.33;16.42;;;19.30;97.20;;;;;;1708319;28;20198;-78
2022/05/03 07:17:01;;;;;;;19.83;18.02;;;19.40;97.20;;;;;;1709277;28;20207;-78
2022/05/03 07:22:46;;;;;;;18.90;16.83;;;19.30;97.20;;;;;;1708229;28;20238;-77
2022/05/03 07:23:37;;;;;;;17.42;15.68;;;19.40;97.20;;;;;;1709239;28;20205;-77
2022/05/03 07:24:29;;;;;;;15.73;14.37;;;19.40;97.20;;;;;;1708636;28;20261;-77
2022/05/03 07:25:20;;;;;;;16.10;14.70;;;19.50;97.20;;;;;;1708534;28;20390;-78
2022/05/03 07:26:12;;;;;;;16.17;14.63;;;19.60;97.20;;;;;;1708322;28;20206;-78
2022/05/03 07:27:04;;;;;;;16.45;14.80;;;19.60;97.20;;;;;;1707570;28;20575;-77
2022/05/03 07:27:56;;;;;;;14.68;13.27;;;19.70;97.20;;;;;;1707849;28;20278;-78
2022/05/03 07:28:48;;;;;;;15.10;13.60;;;19.80;97.20;;;;;;1709146;28;20210;-77
2022/05/03 07:29:40;;;;;;;16.38;13.90;;;19.80;97.20;;;;;;1708466;28;20195;-77
2022/05/03 07:30:31;;;;;;;13.82;12.43;;;19.90;97.20;;;;;;1710083;28;20202;-77
2022/05/03 07:31:23;;;;;;;13.40;12.30;;;20.00;97.20;;;;;;1710164;28;20281;-77
2022/05/03 07:32:14;;;;;;;14.30;12.93;;;20.00;97.20;;;;;;1709612;28;20210;-78
2022/05/03 07:33:07;;;;;;;13.25;12.05;;;20.10;97.20;;;;;;1708661;28;20572;-77
2022/05/03 07:33:57;;;;;;;13.80;12.50;;;20.20;97.20;;;;;;1709488;28;20205;-77
2022/05/03 07:34:49;;;;;;;14.57;12.70;;;20.30;97.20;;;;;;1709152;28;20280;-77
2022/05/03 07:35:41;;;;;;;21.92;14.75;;;20.40;97.20;;;;;;1709083;28;20199;-77
2022/05/03 07:36:33;;;;;;;15.63;14.35;;;20.50;97.20;;;;;;1708997;28;20285;-77
2022/05/03 07:37:24;;;;;;;14.77;13.57;;;20.60;97.20;;;;;;1707760;28;20257;-78
2022/05/03 07:38:16;;;;;;;16.95;15.00;;;20.70;97.20;;;;;;1707846;28;20202;-77
2022/05/03 07:39:07;;;;;;;16.05;13.05;;;20.70;97.20;;;;;;1707828;28;20206;-77
2022/05/03 07:39:58;;;;;;;16.43;14.30;;;20.80;97.20;;;;;;1708257;28;20206;-78
2022/05/03 07:40:49;;;;;;;13.60;12.35;;;20.90;97.20;;;;;;1708568;28;20246;-78
2022/05/03 07:41:41;;;;;;;15.10;13.37;;;21.00;97.20;;;;;;1709775;28;20210;-77
2022/05/03 07:42:32;;;;;;;14.98;13.20;;;21.00;97.20;;;;;;1708346;28;20241;-78
2022/05/03 07:43:24;;;;;;;17.03;13.73;;;21.10;97.20;;;;;;1708258;28;20202;-77
2022/05/03 07:44:14;;;;;;;14.88;13.63;;;21.20;97.20;;;;;;1708417;28;20480;-78
2022/05/03 07:45:07;;;;;;;13.57;12.30;;;21.30;97.20;;;;;;1708937;28;20201;-77
2022/05/03 07:45:58;;;;;;;13.70;12.40;;;21.40;97.20;;;;;;1708295;28;20209;-78
2022/05/03 07:46:50;;;;;;;12.73;11.50;;;21.50;97.20;;;;;;1707755;28;20202;-78
2022/05/03 07:47:41;;;;;;;13.75;11.75;;;21.60;97.20;;;;;;1707837;28;20201;-77
2022/05/03 07:48:33;;;;;;;13.80;12.43;;;21.70;97.20;;;;;;1707946;28;20735;-78
2022/05/03 07:49:24;;;;;;;12.32;11.23;;;21.80;97.20;;;;;;1707793;28;20206;-78
2022/05/03 07:50:15;;;;;;;12.07;10.97;;;21.90;97.20;;;;;;1708003;28;20229;-77
2022/05/03 07:51:10;;;;;;;13.60;12.20;;;22.00;97.20;;;;;;1706977;28;20724;-77
2022/05/03 07:52:02;;;;;;;12.48;11.30;;;22.00;97.20;;;;;;1709046;28;20345;-78
2022/05/03 07:52:53;;;;;;;13.45;12.05;;;22.10;97.20;;;;;;1707726;28;20209;-78
2022/05/03 07:53:44;;;;;;;12.77;11.67;;;22.20;97.20;;;;;;1708986;28;20198;-77
2022/05/03 07:54:39;;;;;;;14.27;13.07;;;22.30;97.20;;;;;;1709041;28;20583;-77
2022/05/03 07:55:31;;;;;;;14.68;13.20;;;22.40;97.20;;;;;;1708901;28;20405;-77
2022/05/03 07:56:22;;;;;;;13.02;11.82;;;22.40;97.20;;;;;;1707573;28;20673;-77
2022/05/03 07:57:13;;;;;;;13.60;12.50;;;22.50;97.20;;;;;;1708908;28;20588;-77
2022/05/03 07:58:04;;;;;;;14.20;12.80;;;22.50;97.20;;;;;;1709362;28;20211;-77
2022/05/03 07:58:56;;;;;;;14.00;12.50;;;22.60;97.20;;;;;;1709184;28;20678;-77
2022/05/03 07:59:47;;;;;;;14.40;13.13;;;22.60;97.20;;;;;;1707865;28;20866;-76
2022/05/03 08:00:39;;;;;;;13.73;12.43;;;22.60;97.20;;;;;;1708626;28;20249;-78
2022/05/03 08:01:30;;;;;;;13.45;12.45;;;22.60;97.20;;;;;;1709360;28;20704;-79
2022/05/03 08:02:23;;;;;;;13.90;12.80;;;22.60;97.20;;;;;;1709424;28;20662;-77
2022/05/03 08:03:16;;;;;;;15.45;13.88;;;22.60;97.20;;;;;;1708108;28;20668;-78
2022/05/03 08:04:07;;;;;;;14.05;12.95;;;22.60;97.20;;;;;;1709090;28;20233;-78
2022/05/03 08:04:59;;;;;;;12.50;11.40;;;22.70;97.20;;;;;;1707941;28;20273;-78
2022/05/03 08:05:50;;;;;;;13.02;12.02;;;22.70;97.20;;;;;;1707560;28;20211;-78
2022/05/03 08:06:43;;;;;;;11.87;10.87;;;22.70;97.20;;;;;;1708558;28;20204;-78
2022/05/03 08:07:35;;;;;;;12.30;11.40;;;22.80;97.20;;;;;;1708233;28;20195;-78
2022/05/03 08:08:26;;;;;;;10.98;10.15;;;22.80;97.20;;;;;;1707698;28;20264;-77
2022/05/03 08:09:17;;;;;;;9.90;9.20;;;22.80;97.20;;;;;;1707800;28;20203;-78
2022/05/03 08:10:10;;;;;;;10.43;9.63;;;22.90;97.20;;;;;;1708853;28;20197;-78
2022/05/03 08:11:01;;;;;;;10.15;9.35;;;22.90;97.20;;;;;;1708812;28;20613;-78
2022/05/03 08:11:53;;;;;;;10.00;9.10;;;22.90;97.20;;;;;;1709407;28;20280;-78
2022/05/03 08:12:50;;;;;;;9.93;9.23;;;22.90;97.20;;;;;;1708940;28;20214;-78
2022/05/03 08:13:44;;;;;;;10.38;9.38;;;23.00;97.20;;;;;;1708743;28;20590;-78
2022/05/03 08:14:36;;;;;;;9.45;8.60;;;23.00;97.20;;;;;;1709282;28;20198;-78
2022/05/03 08:15:27;;;;;;;9.48;8.77;;;23.10;97.20;;;;;;1709802;28;20229;-78
2022/05/03 08:16:20;;;;;;;10.10;9.20;;;23.20;97.20;;;;;;1708684;28;20236;-78
2022/05/03 08:17:11;;;;;;;9.98;9.18;;;23.20;97.20;;;;;;1707511;28;20270;-78
2022/05/03 08:18:02;;;;;;;10.93;10.02;;;23.20;97.20;;;;;;1708982;28;20201;-78
2022/05/03 08:18:54;;;;;;;9.63;8.73;;;23.30;97.20;;;;;;1708945;28;20674;-78
2022/05/03 08:19:45;;;;;;;10.75;9.75;;;23.30;97.20;;;;;;1707712;28;20233;-78
2022/05/03 08:20:38;;;;;;;9.50;8.80;;;23.30;97.20;;;;;;1707869;28;20262;-78
2022/05/03 08:21:28;;;;;;;9.60;8.80;;;23.30;97.20;;;;;;1708389;28;20902;-78
2022/05/03 08:22:22;;;;;;;9.60;8.90;;;23.20;97.20;;;;;;1708028;28;20595;-78
2022/05/03 08:23:12;;;;;;;10.65;9.75;;;23.20;97.20;;;;;;1708608;28;20658;-78
2022/05/03 08:24:05;;;;;;;9.87;9.07;;;23.20;97.20;;;;;;1707933;28;20589;-78
2022/05/03 08:24:55;;;;;;;9.60;8.80;;;23.20;97.20;;;;;;1708776;28;20203;-78
2022/05/03 08:25:47;;;;;;;10.80;9.80;;;23.20;97.20;;;;;;1707825;28;20213;-78
2022/05/03 08:26:38;;;;;;;9.80;8.98;;;23.20;97.20;;;;;;1709487;28;20249;-78
2022/05/03 08:27:30;;;;;;;10.00;9.20;;;23.30;97.20;;;;;;1709255;28;20238;-78
2022/05/03 08:28:22;;;;;;;9.75;8.95;;;23.30;97.20;;;;;;1707753;28;20539;-78
2022/05/03 08:29:13;;;;;;;10.80;9.90;;;23.30;97.20;;;;;;1710227;28;20210;-77
2022/05/03 08:30:05;;;;;;;9.23;8.43;;;23.30;97.20;;;;;;1710090;28;20305;-78
2022/05/03 08:30:57;;;;;;;10.95;9.85;;;23.30;97.20;;;;;;1708893;28;20226;-78
2022/05/03 08:31:49;;;;;;;9.93;9.13;;;23.40;97.20;;;;;;1708751;28;20226;-78
2022/05/03 08:32:39;;;;;;;10.05;9.07;;;23.40;97.20;;;;;;1707592;28;20656;-78
2022/05/03 08:33:31;;;;;;;9.87;9.03;;;23.50;97.20;;;;;;1708720;28;20194;-78
2022/05/03 08:34:22;;;;;;;14.57;8.98;;;23.50;97.20;;;;;;1708270;28;20285;-77
2022/05/03 08:35:14;;;;;;;10.53;9.50;;;23.50;97.20;;;;;;1708835;28;20195;-77
2022/05/03 08:36:05;;;;;;;9.85;8.93;;;23.50;97.20;;;;;;1707526;28;20250;-77
2022/05/03 08:42:50;;;;;;;10.55;9.75;;;23.30;97.20;;;;;;1709084;28;20205;-78
2022/05/03 08:43:41;;;;;;;10.05;9.25;;;23.20;97.20;;;;;;1707775;28;20293;-77
2022/05/03 08:44:34;;;;;;;10.77;9.87;;;23.10;97.20;;;;;;1709551;28;20230;-77
2022/05/03 08:45:25;;;;;;;8.88;8.20;;;23.10;97.20;;;;;;1708297;28;20233;-78
2022/05/03 08:46:17;;;;;;;8.40;7.80;;;23.00;97.20;;;;;;1708875;28;20194;-78
2022/05/03 08:47:08;;;;;;;8.18;7.47;;;23.00;97.20;;;;;;1708559;28;20470;-77
2022/05/03 08:48:01;;;;;;;8.43;7.68;;;23.10;97.20;;;;;;1708224;28;20297;-78
2022/05/03 08:48:56;;;;;;;8.38;7.78;;;23.10;97.20;;;;;;1708196;28;20252;-77
2022/05/03 08:49:55;;;;;;;8.38;7.57;;;23.10;97.20;;;;;;1711192;28;20587;-77
2022/05/03 08:50:46;;;;;;;8.10;7.50;;;23.20;97.20;;;;;;1708813;28;20246;-78
2022/05/03 08:51:40;;;;;;;8.05;7.35;;;23.20;97.20;;;;;;1708746;28;20573;-78
2022/05/03 08:52:34;;;;;;;9.43;8.20;;;23.30;97.20;;;;;;1708822;28;20202;-78
2022/05/03 08:53:29;;;;;;;8.90;8.15;;;23.30;97.20;;;;;;1708893;28;20194;-78
2022/05/03 08:54:20;;;;;;;8.55;7.75;;;23.40;97.20;;;;;;1708981;28;20613;-77
2022/05/03 08:55:12;;;;;;;7.55;7.05;;;23.40;97.20;;;;;;1708856;28;20209;-78
2022/05/03 08:56:05;;;;;;;7.72;7.13;;;23.50;97.20;;;;;;1709305;28;20206;-78
2022/05/03 08:56:56;;;;;;;7.72;6.93;;;23.50;97.20;;;;;;1710456;28;20256;-78
2022/05/03 08:57:47;;;;;;;6.87;6.37;;;23.60;97.20;;;;;;1709946;28;20198;-77
2022/05/03 08:58:39;;;;;;;7.45;6.90;;;23.70;97.20;;;;;;1708650;28;20923;-78
2022/05/03 08:59:33;;;;;;;7.70;6.40;;;23.70;97.20;;;;;;1710451;28;20207;-78
2022/05/03 09:00:25;;;;;;;7.25;6.60;;;23.80;97.20;;;;;;1711606;28;20225;-77
2022/05/03 09:01:17;;;;;;;7.18;6.68;;;23.80;97.20;;;;;;1709759;28;20190;-80
2022/05/03 09:02:08;;;;;;;7.55;6.95;;;23.80;97.20;;;;;;1709480;28;20202;-78
2022/05/03 09:03:00;;;;;;;8.18;6.70;;;23.90;97.20;;;;;;1709218;28;20190;-77
2022/05/03 09:03:51;;;;;;;6.95;6.45;;;23.90;97.20;;;;;;1708196;28;20206;-78
2022/05/03 09:04:43;;;;;;;7.45;6.82;;;24.00;97.20;;;;;;1709749;28;20218;-78
2022/05/03 09:05:35;;;;;;;6.72;6.18;;;24.00;97.20;;;;;;1709841;28;20206;-77
2022/05/03 09:06:41;;;;;;;6.85;6.25;;;24.10;97.20;;;;;;1709811;28;20282;-77
2022/05/03 09:07:34;;;;;;;6.75;6.25;;;24.20;97.20;;;;;;1711461;28;20241;-78
2022/05/03 09:08:27;;;;;;;7.03;6.45;;;24.20;97.20;;;;;;1708635;28;21856;-78
2022/05/03 09:09:21;;;;;;;5.57;5.15;;;24.30;97.20;;;;;;1708668;28;20653;-78
2022/05/03 09:10:18;;;;;;;6.18;5.57;;;24.40;97.20;;;;;;1708730;28;20233;-78
2022/05/03 09:11:15;;;;;;;6.70;6.10;;;24.40;97.20;;;;;;1709516;28;20202;-77
2022/05/03 09:12:20;;;;;;;6.28;5.68;;;24.50;97.20;;;;;;1709178;28;20890;-78
2022/05/03 09:13:18;;;;;;;5.95;5.55;;;24.50;97.20;;;;;;1711255;28;20190;-77
2022/05/03 09:14:10;;;;;;;7.20;6.60;;;24.70;97.20;;;;;;1711064;28;20209;-77
2022/05/03 09:15:02;;;;;;;7.40;6.80;;;24.70;97.20;;;;;;1710527;28;20657;-78
2022/05/03 09:15:56;;;;;;;7.88;7.18;;;24.80;97.20;;;;;;1710517;28;20665;-78
2022/05/03 09:16:49;;;;;;;8.38;7.57;;;24.80;97.20;;;;;;1708624;28;20744;-78
2022/05/03 09:17:41;;;;;;;9.23;8.48;;;24.90;97.20;;;;;;1709259;28;20670;-78
2022/05/03 09:18:32;;;;;;;8.77;8.07;;;25.00;97.20;;;;;;1708896;28;20195;-77
2022/05/03 09:19:24;;;;;;;12.43;11.20;;;25.00;97.20;;;;;;1709806;28;20210;-78
2022/05/03 09:24:03;;;;;;;6.53;5.47;;;25.40;97.20;;;;;;1708242;28;20347;-77
2022/05/03 09:24:55;;;;;;;7.00;6.45;;;25.50;97.20;;;;;;1709655;28;20222;-78
2022/05/03 09:25:48;;;;;;;6.38;5.78;;;25.50;97.20;;;;;;1708297;28;20269;-78
2022/05/03 09:26:39;;;;;;;6.20;5.70;;;25.60;97.20;;;;;;1710447;28;20212;-78
2022/05/03 09:27:32;;;;;;;5.25;4.85;;;25.60;97.20;;;;;;1708615;28;20360;-78
2022/05/03 09:28:23;;;;;;;5.70;5.30;;;25.60;97.20;;;;;;1708457;28;20614;-78
2022/05/03 09:29:15;;;;;;;5.45;4.97;;;25.70;97.20;;;;;;1708784;28;20257;-78
2022/05/03 09:30:08;;;;;;;5.50;5.00;;;25.70;97.10;;;;;;1709609;28;20218;-77
2022/05/03 09:31:00;;;;;;;5.00;4.50;;;25.70;96.60;;;;;;1708733;28;20214;-77
2022/05/03 09:31:51;;;;;;;6.65;5.93;;;25.70;96.50;;;;;;1709771;28;20634;-78
2022/05/03 09:32:45;;;;;;;4.57;4.28;;;25.80;96.60;;;;;;1709111;28;20271;-78
2022/05/03 09:33:37;;;;;;;5.00;4.70;;;25.90;96.60;;;;;;1709748;28;20686;-78
2022/05/03 09:34:29;;;;;;;5.30;4.90;;;25.90;96.50;;;;;;1708863;28;20195;-77
2022/05/03 09:35:35;;;;;;;4.90;4.50;;;26.00;96.10;;;;;;1709323;28;20218;-77
2022/05/03 09:36:28;;;;;;;4.60;4.20;;;26.10;95.70;;;;;;1708411;28;20261;-78
2022/05/03 09:37:36;;;;;;;4.47;4.07;;;26.10;94.90;;;;;;1710388;28;20206;-78
2022/05/03 09:38:29;;;;;;;3.67;3.42;;;26.10;94.80;;;;;;1709038;28;20194;-77
2022/05/03 09:39:26;;;;;;;3.60;3.17;;;26.20;94.30;;;;;;1709622;28;20202;-77
2022/05/03 09:40:17;;;;;;;3.35;3.05;;;26.20;93.50;;;;;;1708888;28;20225;-77
2022/05/03 09:41:14;;;;;;;3.20;3.00;;;26.20;92.90;;;;;;1709028;28;20260;-77
2022/05/03 09:42:09;;;;;;;4.82;2.92;;;26.20;92.40;;;;;;1709012;28;20198;-78